createdAt,value
2022-08-28T00:02:02.241Z,19.59
2022-08-28T00:04:29.790Z,19.60
2022-08-28T00:06:57.141Z,19.65
2022-08-28T00:09:24.895Z,19.60
2022-08-28T00:11:51.904Z,19.61
2022-08-28T00:14:21.023Z,19.54
2022-08-28T00:16:50.060Z,19.68
2022-08-28T00:19:19.342Z,19.57
2022-08-28T00:21:47.618Z,19.58
2022-08-28T00:24:15.046Z,19.56
2022-08-28T00:27:00.792Z,19.54
2022-08-28T00:29:29.050Z,19.52
2022-08-28T00:31:56.638Z,19.50
2022-08-28T00:34:32.042Z,19.43
2022-08-28T00:37:00.928Z,19.51
2022-08-28T00:39:28.140Z,19.39
2022-08-28T00:41:58.031Z,19.38
2022-08-28T00:44:28.832Z,19.43
2022-08-28T00:46:59.190Z,19.47
2022-08-28T00:49:37.466Z,19.33
2022-08-28T00:52:12.515Z,19.39
2022-08-28T00:54:59.933Z,19.30
2022-08-28T00:57:41.065Z,19.25
2022-08-28T01:00:37.034Z,19.24
2022-08-28T01:03:06.279Z,19.14
2022-08-28T01:05:36.092Z,19.17
2022-08-28T01:08:04.571Z,19.16
2022-08-28T01:10:34.744Z,19.20
2022-08-28T01:13:02.744Z,19.19
2022-08-28T01:15:37.040Z,19.21
2022-08-28T01:18:10.817Z,19.06
2022-08-28T01:21:11.639Z,19.11
2022-08-28T01:24:22.687Z,19.10
2022-08-28T01:26:49.975Z,18.97
2022-08-28T01:29:17.452Z,18.99
2022-08-28T01:31:44.629Z,18.94
2022-08-28T01:34:13.239Z,19.04
2022-08-28T01:36:42.235Z,19.15
2022-08-28T01:39:19.936Z,19.12
2022-08-28T01:41:51.996Z,18.82
2022-08-28T01:44:24.736Z,18.74
2022-08-28T01:46:58.767Z,18.70
2022-08-28T01:49:29.289Z,18.81
2022-08-28T01:51:58.001Z,18.79
2022-08-28T01:54:26.944Z,18.85
2022-08-28T01:56:55.103Z,18.65
2022-08-28T01:59:22.652Z,18.70
2022-08-28T02:01:49.840Z,18.70
2022-08-28T02:04:16.992Z,18.67
2022-08-28T02:06:44.057Z,18.65
2022-08-28T02:09:14.744Z,18.69
2022-08-28T02:11:46.786Z,18.58
2022-08-28T02:14:14.786Z,18.48
2022-08-28T02:16:41.810Z,18.31
2022-08-28T02:19:08.798Z,18.26
2022-08-28T02:21:35.766Z,18.25
2022-08-28T02:24:03.493Z,18.33
2022-08-28T02:26:31.814Z,18.35
2022-08-28T02:28:59.730Z,18.16
2022-08-28T02:31:27.717Z,18.26
2022-08-28T02:33:55.805Z,18.23
2022-08-28T02:36:23.624Z,18.25
2022-08-28T02:38:57.385Z,18.08
2022-08-28T02:41:25.460Z,18.16
2022-08-28T02:43:53.224Z,18.18
2022-08-28T02:46:20.422Z,18.20
2022-08-28T02:48:47.468Z,18.21
2022-08-28T02:51:15.148Z,18.24
2022-08-28T02:53:43.196Z,18.23
2022-08-28T02:56:10.862Z,18.16
2022-08-28T02:58:39.741Z,18.06
2022-08-28T03:01:11.191Z,18.17
2022-08-28T03:03:40.939Z,18.13
2022-08-28T03:06:14.313Z,18.03
2022-08-28T03:08:43.440Z,17.91
2022-08-28T03:11:11.888Z,17.98
2022-08-28T03:13:39.056Z,17.97
2022-08-28T03:16:06.557Z,17.88
2022-08-28T03:18:33.713Z,17.90
2022-08-28T03:21:01.145Z,17.90
2022-08-28T03:23:28.306Z,17.90
2022-08-28T03:26:11.305Z,17.89
2022-08-28T03:28:48.389Z,17.97
2022-08-28T03:31:23.910Z,17.93
2022-08-28T03:33:52.423Z,17.97
2022-08-28T03:36:26.139Z,18.02
2022-08-28T03:38:59.727Z,18.03
2022-08-28T03:41:30.762Z,17.99
2022-08-28T03:44:00.892Z,17.88
2022-08-28T03:46:34.788Z,17.98
2022-08-28T03:49:04.818Z,17.95
2022-08-28T03:51:34.085Z,17.80
2022-08-28T03:54:04.092Z,17.93
2022-08-28T03:56:32.223Z,17.93
2022-08-28T03:59:02.372Z,17.96
2022-08-28T04:01:29.962Z,17.84
2022-08-28T04:03:57.624Z,17.87
2022-08-28T04:06:25.089Z,17.95
2022-08-28T04:08:52.077Z,17.90
2022-08-28T04:11:19.064Z,17.91
2022-08-28T04:13:46.222Z,17.92
2022-08-28T04:16:19.057Z,17.91
2022-08-28T04:18:49.731Z,17.90
2022-08-28T04:21:24.376Z,17.98
2022-08-28T04:23:51.636Z,18.01
2022-08-28T04:26:27.799Z,17.98
2022-08-28T04:28:56.093Z,17.91
2022-08-28T04:31:31.935Z,18.02
2022-08-28T04:34:02.632Z,17.88
2022-08-28T04:36:29.987Z,17.80
2022-08-28T04:38:58.743Z,17.74
2022-08-28T04:41:27.592Z,17.78
2022-08-28T04:43:57.420Z,17.73
2022-08-28T04:46:25.735Z,17.74
2022-08-28T04:48:53.112Z,17.74
2022-08-28T04:51:20.501Z,17.86
2022-08-28T04:53:47.770Z,17.76
2022-08-28T04:56:15.868Z,17.79
2022-08-28T04:58:44.492Z,17.85
2022-08-28T05:01:20.139Z,17.91
2022-08-28T05:03:52.468Z,17.93
2022-08-28T05:06:19.456Z,17.89
2022-08-28T05:08:46.469Z,17.87
2022-08-28T05:11:32.930Z,17.72
2022-08-28T05:14:08.944Z,17.85
2022-08-28T05:16:49.324Z,17.76
2022-08-28T05:19:18.582Z,17.66
2022-08-28T05:21:46.669Z,17.76
2022-08-28T05:24:13.913Z,17.92
2022-08-28T05:26:41.974Z,17.95
2022-08-28T05:29:11.176Z,18.14
2022-08-28T05:31:40.393Z,17.93
2022-08-28T05:34:08.171Z,17.85
2022-08-28T05:36:38.703Z,18.06
2022-08-28T05:39:11.537Z,18.08
2022-08-28T05:41:43.730Z,17.83
2022-08-28T05:44:14.935Z,18.00
2022-08-28T05:46:47.670Z,17.95
2022-08-28T05:49:17.678Z,17.94
2022-08-28T05:51:45.968Z,17.95
2022-08-28T05:54:14.783Z,17.96
2022-08-28T05:56:45.300Z,17.66
2022-08-28T05:59:13.753Z,18.03
2022-08-28T06:01:47.482Z,18.09
2022-08-28T06:04:25.161Z,18.17
2022-08-28T06:06:52.715Z,18.24
2022-08-28T06:09:29.774Z,18.16
2022-08-28T06:12:00.917Z,18.10
2022-08-28T06:14:30.214Z,17.93
2022-08-28T06:16:58.760Z,18.03
2022-08-28T06:19:29.706Z,17.88
2022-08-28T06:22:01.753Z,17.69
2022-08-28T06:24:34.800Z,17.79
2022-08-28T06:27:01.831Z,17.95
2022-08-28T06:29:29.746Z,17.81
2022-08-28T06:32:02.073Z,18.17
2022-08-28T06:34:29.470Z,17.88
2022-08-28T06:36:56.639Z,17.91
2022-08-28T06:39:23.868Z,17.88
2022-08-28T06:41:50.957Z,17.82
2022-08-28T06:44:21.621Z,17.49
2022-08-28T06:46:53.667Z,17.81
2022-08-28T06:49:21.484Z,17.93
2022-08-28T06:51:49.153Z,17.92
2022-08-28T06:54:22.226Z,17.87
2022-08-28T06:56:52.344Z,17.52
2022-08-28T06:59:19.627Z,17.71
2022-08-28T07:01:46.846Z,17.64
2022-08-28T07:04:14.577Z,17.84
2022-08-28T07:06:54.202Z,17.64
2022-08-28T07:09:21.638Z,17.66
2022-08-28T07:11:48.646Z,17.92
2022-08-28T07:14:15.797Z,18.06
2022-08-28T07:16:44.362Z,17.95
2022-08-28T07:19:13.257Z,17.76
2022-08-28T07:21:45.648Z,17.93
2022-08-28T07:24:16.023Z,18.08
2022-08-28T07:26:45.801Z,17.77
2022-08-28T07:29:13.148Z,17.99
2022-08-28T07:31:46.375Z,17.64
2022-08-28T07:34:14.919Z,17.68
2022-08-28T07:36:42.869Z,17.81
2022-08-28T07:39:11.768Z,17.87
2022-08-28T07:41:42.569Z,17.94
2022-08-28T07:44:33.061Z,17.59
2022-08-28T07:47:05.711Z,17.60
2022-08-28T07:49:34.973Z,17.64
2022-08-28T07:52:03.763Z,17.79
2022-08-28T07:54:30.885Z,17.96
2022-08-28T07:56:57.946Z,17.76
2022-08-28T07:59:24.982Z,17.71
2022-08-28T08:01:53.419Z,17.90
2022-08-28T08:04:23.361Z,17.47
2022-08-28T08:06:58.050Z,17.90
2022-08-28T08:09:26.282Z,18.01
2022-08-28T08:11:55.303Z,17.99
2022-08-28T08:14:23.052Z,17.89
2022-08-28T08:16:50.303Z,17.45
2022-08-28T08:19:18.829Z,17.55
2022-08-28T08:21:54.539Z,17.48
2022-08-28T08:24:26.629Z,18.00
2022-08-28T08:27:00.798Z,18.48
2022-08-28T08:29:33.338Z,18.41
2022-08-28T08:32:06.906Z,18.39
2022-08-28T08:34:42.896Z,18.41
2022-08-28T08:37:11.605Z,18.45
2022-08-28T08:39:39.656Z,17.90
2022-08-28T08:42:31.579Z,17.41
2022-08-28T08:45:10.470Z,17.79
2022-08-28T08:47:51.329Z,17.22
2022-08-28T08:50:21.617Z,17.71
2022-08-28T08:53:43.110Z,17.89
2022-08-28T08:56:17.480Z,17.93
2022-08-28T08:58:52.897Z,18.11
2022-08-28T09:02:06.996Z,17.99
2022-08-28T09:04:53.153Z,18.02
2022-08-28T09:07:56.769Z,18.31
2022-08-28T09:10:45.955Z,18.28
2022-08-28T09:13:44.468Z,18.18
2022-08-28T09:16:31.507Z,18.01
2022-08-28T09:19:01.053Z,18.24
2022-08-28T09:21:34.728Z,18.55
2022-08-28T09:24:11.188Z,18.31
2022-08-28T09:26:40.299Z,18.59
2022-08-28T09:29:18.231Z,18.40
2022-08-28T09:31:45.341Z,18.08
2022-08-28T09:34:38.576Z,17.99
2022-08-28T09:37:08.477Z,18.35
2022-08-28T09:39:36.027Z,18.24
2022-08-28T09:42:42.769Z,18.15
2022-08-28T09:45:22.426Z,17.93
2022-08-28T09:47:57.589Z,18.11
2022-08-28T09:50:42.363Z,18.33
2022-08-28T09:53:17.575Z,18.43
2022-08-28T09:56:14.115Z,18.32
2022-08-28T09:59:02.340Z,18.40
2022-08-28T10:01:41.196Z,18.46
2022-08-28T10:04:44.566Z,18.67
2022-08-28T10:07:56.289Z,18.44
2022-08-28T10:10:50.667Z,18.58
2022-08-28T10:13:42.346Z,18.75
2022-08-28T10:16:28.879Z,19.22
2022-08-28T10:19:14.940Z,18.99
2022-08-28T10:21:59.594Z,19.16
2022-08-28T10:24:48.250Z,18.99
2022-08-28T10:27:50.485Z,19.44
2022-08-28T10:30:23.916Z,18.94
2022-08-28T10:33:30.587Z,18.75
2022-08-28T10:36:34.054Z,18.85
2022-08-28T10:39:55.398Z,18.27
2022-08-28T10:42:35.821Z,18.84
2022-08-28T10:45:22.182Z,19.08
2022-08-28T10:48:07.285Z,18.59
2022-08-28T10:50:52.140Z,18.86
2022-08-28T10:53:31.981Z,18.98
2022-08-28T10:56:10.063Z,19.20
2022-08-28T10:58:40.843Z,18.89
2022-08-28T11:01:14.661Z,18.51
2022-08-28T11:03:50.664Z,18.44
2022-08-28T11:06:56.474Z,18.81
2022-08-28T11:09:37.786Z,18.78
2022-08-28T11:12:42.028Z,18.63
2022-08-28T11:15:36.474Z,18.59
2022-08-28T11:18:16.396Z,18.61
2022-08-28T11:21:14.151Z,19.16
2022-08-28T11:24:06.045Z,19.27
2022-08-28T11:26:58.846Z,18.98
2022-08-28T11:30:08.820Z,18.83
2022-08-28T11:32:57.166Z,19.13
2022-08-28T11:35:30.039Z,19.81
2022-08-28T11:37:58.616Z,19.43
2022-08-28T11:40:28.574Z,19.41
2022-08-28T11:43:16.936Z,19.18
2022-08-28T11:45:46.773Z,19.46
2022-08-28T11:48:23.057Z,19.43
2022-08-28T11:51:07.230Z,19.85
2022-08-28T11:54:23.488Z,19.16
2022-08-28T11:57:28.209Z,19.15
2022-08-28T12:00:01.140Z,19.26
2022-08-28T12:02:40.035Z,19.38
2022-08-28T12:05:15.085Z,20.08
2022-08-28T12:07:46.682Z,20.80
2022-08-28T12:10:22.872Z,20.40
2022-08-28T12:13:07.449Z,20.86
2022-08-28T12:15:34.344Z,22.01
2022-08-28T12:18:15.923Z,21.46
2022-08-28T12:20:59.948Z,20.68
2022-08-28T12:23:31.644Z,20.64
2022-08-28T12:26:16.816Z,20.95
2022-08-28T12:29:27.324Z,20.37
2022-08-28T12:32:41.125Z,19.82
2022-08-28T12:35:23.585Z,19.87
2022-08-28T12:37:53.745Z,20.30
2022-08-28T12:40:41.237Z,20.01
2022-08-28T12:43:15.351Z,19.86
2022-08-28T12:45:59.520Z,19.28
2022-08-28T12:48:31.573Z,19.49
2022-08-28T12:51:08.422Z,19.80
2022-08-28T12:53:49.020Z,19.83
2022-08-28T12:56:21.693Z,20.30
2022-08-28T12:58:50.770Z,20.74
2022-08-28T13:01:32.999Z,21.32
2022-08-28T13:04:23.109Z,20.59
2022-08-28T13:06:57.355Z,20.65
2022-08-28T13:09:28.271Z,20.85
2022-08-28T13:11:55.610Z,20.16
2022-08-28T13:14:46.293Z,20.74
2022-08-28T13:17:35.436Z,19.96
2022-08-28T13:20:06.986Z,20.07
2022-08-28T13:22:42.010Z,20.30
2022-08-28T13:25:31.780Z,19.58
2022-08-28T13:28:13.573Z,20.04
2022-08-28T13:30:40.760Z,20.62
2022-08-28T13:33:24.613Z,20.66
2022-08-28T13:35:53.904Z,20.15
2022-08-28T13:38:25.116Z,19.77
2022-08-28T13:40:59.444Z,20.17
2022-08-28T13:43:45.184Z,20.84
2022-08-28T13:46:12.485Z,20.47
2022-08-28T13:48:39.956Z,20.30
2022-08-28T13:51:14.252Z,20.15
2022-08-28T13:53:51.117Z,19.62
2022-08-28T13:56:19.465Z,19.82
2022-08-28T13:58:57.719Z,20.22
2022-08-28T14:01:48.553Z,20.95
2022-08-28T14:04:15.651Z,22.06
2022-08-28T14:06:44.229Z,21.75
2022-08-28T14:09:15.321Z,20.75
2022-08-28T14:11:47.178Z,21.40
2022-08-28T14:14:14.307Z,21.25
2022-08-28T14:16:42.340Z,21.45
2022-08-28T14:19:09.577Z,22.65
2022-08-28T14:21:40.471Z,22.27
2022-08-28T14:24:08.137Z,22.95
2022-08-28T14:26:36.390Z,22.39
2022-08-28T14:29:10.791Z,22.34
2022-08-28T14:31:40.892Z,22.56
2022-08-28T14:34:15.874Z,22.82
2022-08-28T14:36:43.473Z,22.67
2022-08-28T14:39:13.529Z,23.07
2022-08-28T14:41:46.459Z,22.31
2022-08-28T14:44:13.944Z,22.78
2022-08-28T14:46:46.288Z,23.09
2022-08-28T14:49:18.151Z,22.93
2022-08-28T14:51:46.826Z,23.62
2022-08-28T14:54:17.909Z,23.99
2022-08-28T14:56:46.671Z,25.03
2022-08-28T14:59:24.246Z,24.30
2022-08-28T15:01:53.593Z,24.92
2022-08-28T15:04:24.065Z,25.11
2022-08-28T15:06:58.349Z,24.82
2022-08-28T15:09:26.843Z,24.38
2022-08-28T15:11:54.380Z,23.54
2022-08-28T15:14:21.877Z,23.94
2022-08-28T15:16:49.359Z,24.22
2022-08-28T15:19:18.058Z,23.85
2022-08-28T15:21:53.781Z,24.70
2022-08-28T15:24:27.945Z,25.06
2022-08-28T15:26:55.197Z,24.55
2022-08-28T15:29:22.353Z,22.66
2022-08-28T15:31:50.887Z,23.31
2022-08-28T15:34:26.189Z,22.61
2022-08-28T15:36:56.229Z,23.03
2022-08-28T15:39:47.719Z,22.45
2022-08-28T15:42:17.562Z,22.79
2022-08-28T15:44:47.557Z,22.54
2022-08-28T15:47:23.727Z,22.56
2022-08-28T15:49:56.215Z,22.79
2022-08-28T15:52:25.302Z,22.92
2022-08-28T15:54:53.539Z,22.72
2022-08-28T15:57:21.221Z,22.55
2022-08-28T15:59:50.831Z,22.43
2022-08-28T16:02:24.607Z,22.09
2022-08-28T16:04:55.482Z,22.32
2022-08-28T16:07:23.436Z,22.23
2022-08-28T16:09:51.708Z,22.47
2022-08-28T16:12:19.237Z,22.29
2022-08-28T16:14:57.981Z,22.44
2022-08-28T16:17:27.692Z,22.69
2022-08-28T16:19:54.801Z,22.36
2022-08-28T16:22:21.814Z,22.49
2022-08-28T16:24:49.079Z,22.36
2022-08-28T16:27:16.657Z,22.69
2022-08-28T16:29:45.364Z,22.57
2022-08-28T16:32:12.987Z,22.96
2022-08-28T16:34:40.157Z,22.81
2022-08-28T16:37:07.926Z,22.90
2022-08-28T16:39:36.109Z,22.64
2022-08-28T16:42:03.805Z,23.34
2022-08-28T16:44:31.027Z,23.31
2022-08-28T16:46:58.199Z,22.77
2022-08-28T16:49:25.385Z,22.74
2022-08-28T16:51:52.755Z,22.50
2022-08-28T16:54:21.489Z,22.29
2022-08-28T16:56:48.767Z,22.12
2022-08-28T16:59:23.279Z,22.00
2022-08-28T17:01:53.012Z,21.77
2022-08-28T17:04:21.362Z,21.75
2022-08-28T17:06:48.375Z,21.51
2022-08-28T17:09:15.389Z,21.55
2022-08-28T17:11:42.393Z,21.54
2022-08-28T17:14:11.878Z,21.49
2022-08-28T17:16:39.383Z,21.26
2022-08-28T17:19:06.529Z,21.12
2022-08-28T17:21:52.111Z,20.82
2022-08-28T17:24:19.569Z,20.86
2022-08-28T17:26:47.393Z,20.75
2022-08-28T17:29:14.472Z,20.75
2022-08-28T17:31:41.544Z,20.75
2022-08-28T17:34:08.798Z,20.85
2022-08-28T17:36:39.425Z,20.88
2022-08-28T17:39:13.118Z,20.68
2022-08-28T17:41:41.498Z,20.59
2022-08-28T17:44:09.265Z,20.35
2022-08-28T17:46:37.950Z,20.50
2022-08-28T17:49:07.301Z,20.31
2022-08-28T17:51:43.304Z,20.35
2022-08-28T17:54:18.809Z,20.09
2022-08-28T17:56:46.354Z,19.85
2022-08-28T17:59:15.172Z,19.73
2022-08-28T18:01:45.006Z,19.91
2022-08-28T18:04:16.217Z,19.81
2022-08-28T18:06:48.559Z,19.50
2022-08-28T18:09:15.658Z,19.46
2022-08-28T18:11:43.312Z,19.38
2022-08-28T18:14:10.451Z,19.17
2022-08-28T18:16:38.877Z,19.00
2022-08-28T18:19:10.038Z,19.17
2022-08-28T18:21:38.922Z,18.99
2022-08-28T18:24:07.057Z,18.84
2022-08-28T18:26:34.541Z,18.84
2022-08-28T18:29:01.641Z,18.63
2022-08-28T18:31:28.758Z,18.77
2022-08-28T18:33:55.930Z,18.56
2022-08-28T18:36:23.170Z,18.43
2022-08-28T18:38:51.336Z,18.40
2022-08-28T18:41:20.328Z,18.43
2022-08-28T18:43:48.036Z,18.35
2022-08-28T18:46:15.755Z,18.52
2022-08-28T18:48:43.020Z,18.31
2022-08-28T18:51:12.463Z,18.58
2022-08-28T18:53:42.350Z,18.34
2022-08-28T18:56:12.457Z,18.40
2022-08-28T18:58:41.501Z,18.54
2022-08-28T19:01:09.890Z,18.67
2022-08-28T19:03:37.344Z,18.55
2022-08-28T19:06:06.206Z,18.58
2022-08-28T19:08:35.242Z,18.48
2022-08-28T19:11:11.180Z,18.50
2022-08-28T19:13:39.615Z,18.38
2022-08-28T19:16:07.530Z,18.26
2022-08-28T19:18:34.966Z,18.30
2022-08-28T19:21:16.760Z,18.15
2022-08-28T19:23:51.797Z,18.06
2022-08-28T19:26:27.487Z,18.14
2022-08-28T19:28:55.359Z,18.07
2022-08-28T19:31:23.383Z,18.05
2022-08-28T19:33:51.371Z,17.94
2022-08-28T19:36:19.184Z,17.77
2022-08-28T19:38:46.181Z,17.79
2022-08-28T19:41:14.429Z,17.51
2022-08-28T19:43:42.963Z,17.37
2022-08-28T19:46:18.229Z,17.36
2022-08-28T19:48:51.339Z,17.11
2022-08-28T19:51:23.368Z,16.95
2022-08-28T19:53:58.397Z,16.88
2022-08-28T19:56:29.606Z,16.74
2022-08-28T19:58:59.550Z,16.75
2022-08-28T20:01:40.250Z,16.76
2022-08-28T20:04:09.388Z,17.06
2022-08-28T20:06:37.155Z,16.72
2022-08-28T20:09:07.406Z,16.47
2022-08-28T20:11:38.269Z,16.38
2022-08-28T20:14:06.162Z,16.38
2022-08-28T20:16:40.666Z,16.46
2022-08-28T20:19:10.459Z,16.28
2022-08-28T20:21:41.399Z,16.18
2022-08-28T20:24:18.671Z,16.08
2022-08-28T20:26:47.521Z,16.23
2022-08-28T20:29:16.417Z,16.27
2022-08-28T20:31:47.894Z,16.16
2022-08-28T20:34:18.774Z,16.02
2022-08-28T20:36:46.336Z,15.99
2022-08-28T20:39:14.728Z,15.86
2022-08-28T20:41:44.316Z,15.93
2022-08-28T20:44:18.633Z,15.79
2022-08-28T20:46:51.092Z,15.71
2022-08-28T20:49:21.823Z,15.57
2022-08-28T20:52:00.690Z,15.63
2022-08-28T20:54:38.134Z,15.57
2022-08-28T20:57:11.255Z,15.52
2022-08-28T20:59:41.911Z,15.45
2022-08-28T21:02:18.552Z,15.33
2022-08-28T21:04:47.742Z,15.32
2022-08-28T21:07:18.814Z,15.35
2022-08-28T21:10:05.979Z,15.46
2022-08-28T21:12:33.460Z,15.27
2022-08-28T21:15:00.703Z,15.24
2022-08-28T21:17:29.441Z,15.17
2022-08-28T21:20:09.114Z,15.17
2022-08-28T21:22:40.106Z,15.20
2022-08-28T21:25:10.605Z,15.22
2022-08-28T21:27:38.003Z,15.11
2022-08-28T21:30:08.301Z,15.11
2022-08-28T21:32:36.368Z,15.09
2022-08-28T21:35:07.280Z,14.93
2022-08-28T21:37:34.755Z,15.12
2022-08-28T21:40:04.417Z,15.04
2022-08-28T21:42:31.437Z,14.99
2022-08-28T21:44:58.426Z,14.93
2022-08-28T21:47:26.234Z,14.87
2022-08-28T21:49:56.419Z,14.82
2022-08-28T21:52:29.924Z,14.74
2022-08-28T21:55:00.656Z,14.92
2022-08-28T21:57:29.601Z,15.00
2022-08-28T21:59:58.390Z,14.97
2022-08-28T22:02:25.735Z,15.00
2022-08-28T22:04:53.647Z,15.10
2022-08-28T22:07:21.838Z,15.03
2022-08-28T22:09:49.335Z,15.14
2022-08-28T22:12:16.680Z,15.10
2022-08-28T22:14:43.829Z,15.15
2022-08-28T22:17:11.754Z,15.02
2022-08-28T22:19:39.738Z,15.19
2022-08-28T22:22:27.358Z,15.11
2022-08-28T22:24:54.780Z,14.89
2022-08-28T22:27:22.171Z,15.17
2022-08-28T22:29:49.190Z,14.87
2022-08-28T22:32:16.303Z,14.86
2022-08-28T22:34:46.079Z,15.10
2022-08-28T22:37:13.761Z,15.01
2022-08-28T22:39:42.450Z,14.91
2022-08-28T22:42:10.214Z,14.80
2022-08-28T22:44:38.814Z,14.52
2022-08-28T22:47:07.225Z,14.42
2022-08-28T22:49:34.616Z,14.32
2022-08-28T22:52:09.041Z,14.29
2022-08-28T22:54:36.026Z,14.51
2022-08-28T22:57:05.692Z,14.55
2022-08-28T22:59:33.738Z,14.68
2022-08-28T23:02:01.352Z,14.54
2022-08-28T23:04:28.368Z,14.75
2022-08-28T23:06:55.402Z,14.78
2022-08-28T23:09:22.498Z,14.73
2022-08-28T23:11:49.677Z,14.36
2022-08-28T23:14:17.260Z,14.37
2022-08-28T23:16:44.862Z,14.43
2022-08-28T23:19:13.541Z,14.19
2022-08-28T23:21:44.116Z,14.29
2022-08-28T23:24:15.994Z,14.36
2022-08-28T23:26:44.931Z,14.22
2022-08-28T23:29:13.957Z,14.29
2022-08-28T23:31:41.429Z,14.21
2022-08-28T23:34:08.764Z,14.00
2022-08-28T23:36:36.588Z,14.15
2022-08-28T23:39:04.889Z,13.96
2022-08-28T23:41:33.546Z,14.08
2022-08-28T23:44:03.215Z,14.35
2022-08-28T23:46:33.506Z,14.22
2022-08-28T23:49:00.952Z,13.91
2022-08-28T23:51:28.958Z,13.75
2022-08-28T23:53:55.970Z,13.74
2022-08-28T23:56:24.010Z,13.86
2022-08-28T23:58:55.426Z,13.80
